createdAt,value
2018-05-08T00:20:06.621Z,1008.49
2018-05-08T00:30:17.106Z,1008.38
2018-05-08T00:40:08.874Z,1008.19
2018-05-08T00:50:06.640Z,1008.12
2018-05-08T01:00:06.651Z,1008.04
2018-05-08T01:10:12.376Z,1007.97
2018-05-08T01:20:06.672Z,1007.86
2018-05-08T01:40:10.004Z,1007.76
2018-05-08T01:50:06.708Z,1007.73
2018-05-08T02:30:06.715Z,1007.46
2018-05-08T02:40:08.911Z,1007.48
2018-05-08T02:50:10.453Z,1007.43
2018-05-08T03:00:06.752Z,1007.39
2018-05-08T03:10:06.894Z,1007.37
2018-05-08T03:30:06.793Z,1007.24
2018-05-08T03:40:07.900Z,1007.29
2018-05-08T03:50:06.798Z,1007.2
2018-05-08T04:00:12.620Z,1007.2
2018-05-08T04:10:06.802Z,1007.1
2018-05-08T04:20:06.825Z,1007.04
2018-05-08T04:30:09.045Z,1007.02
2018-05-08T04:40:07.886Z,1006.98
2018-05-08T04:50:06.839Z,1006.9
2018-05-08T05:00:06.859Z,1006.84
2018-05-08T05:10:06.873Z,1006.76
2018-05-08T05:20:07.005Z,1006.79
2018-05-08T05:40:06.910Z,1006.73
2018-05-08T05:50:06.898Z,1006.66
2018-05-08T06:00:07.010Z,1006.55
2018-05-08T06:10:06.938Z,1006.48
2018-05-08T06:20:11.678Z,1006.49
2018-05-08T06:30:06.952Z,1006.51
2018-05-08T06:40:06.977Z,1006.51
2018-05-08T06:50:07.048Z,1006.4
2018-05-08T07:00:06.963Z,1006.55
2018-05-08T07:10:07.257Z,1006.56
2018-05-08T07:20:06.965Z,1006.44
2018-05-08T07:30:07.016Z,1006.41
2018-05-08T07:40:07.055Z,1006.42
2018-05-08T07:50:06.994Z,1006.51
2018-05-08T08:00:07.085Z,1006.48
2018-05-08T08:10:07.073Z,1006.39
2018-05-08T08:20:06.992Z,1006.32
2018-05-08T08:30:07.016Z,1006.24
2018-05-08T08:40:07.012Z,1006.15
2018-05-08T08:50:07.004Z,1005.95
2018-05-08T09:00:07.183Z,1005.81
2018-05-08T09:10:07.032Z,1005.8
2018-05-08T09:20:07.004Z,1005.64
2018-05-08T09:30:07.034Z,1005.51
2018-05-08T09:40:07.027Z,1005.24
2018-05-08T09:50:07.021Z,1005.19
2018-05-08T10:00:07.048Z,1005.02
2018-05-08T10:10:07.041Z,1004.91
2018-05-08T10:20:07.011Z,1004.82
2018-05-08T10:30:08.074Z,1004.69
2018-05-08T10:40:07.049Z,1004.58
2018-05-08T10:50:07.037Z,1004.45
2018-05-08T11:00:07.022Z,1004.32
2018-05-08T11:10:07.080Z,1004.16
2018-05-08T11:20:07.041Z,1004.03
2018-05-08T11:30:07.034Z,1003.9
2018-05-08T11:40:07.068Z,1003.77
2018-05-08T11:50:07.105Z,1003.64
2018-05-08T12:00:07.928Z,1003.69
2018-05-08T12:10:07.073Z,1003.4
2018-05-08T12:20:07.062Z,1003.38
2018-05-08T12:30:07.046Z,1003.34
2018-05-08T12:40:07.064Z,1003.25
2018-05-08T12:50:07.053Z,1003.09
2018-05-08T13:00:07.063Z,1002.86
2018-05-08T13:10:07.106Z,1002.78
2018-05-08T13:20:07.075Z,1002.75
2018-05-08T13:30:07.053Z,1002.57
2018-05-08T13:40:07.150Z,1002.51
2018-05-08T13:50:07.055Z,1002.48
2018-05-08T14:00:07.066Z,1002.32
2018-05-08T14:10:07.085Z,1002.23
2018-05-08T14:20:07.090Z,1002.24
2018-05-08T14:30:07.124Z,1002.1
2018-05-08T14:40:07.155Z,1002.08
2018-05-08T14:50:07.216Z,1001.94
2018-05-08T15:00:07.199Z,1001.9
2018-05-08T15:10:07.177Z,1001.76
2018-05-08T15:20:07.203Z,1001.71
2018-05-08T15:30:07.086Z,1001.67
2018-05-08T15:40:07.158Z,1001.65
2018-05-08T15:50:07.086Z,1001.48
2018-05-08T16:00:07.113Z,1001.4
2018-05-08T16:10:07.113Z,1001.33
2018-05-08T16:20:07.158Z,1001.35
2018-05-08T16:30:07.214Z,1001.28
2018-05-08T16:40:07.108Z,1001.21
2018-05-08T16:50:07.142Z,1001.25
2018-05-08T17:00:07.236Z,1001.27
2018-05-08T17:10:07.183Z,1001.25
2018-05-08T17:20:07.239Z,1001.25
2018-05-08T17:30:07.264Z,1001.22
2018-05-08T17:40:07.990Z,1001.18
2018-05-08T17:50:07.113Z,1001.2
2018-05-08T18:00:07.209Z,1001.13
2018-05-08T18:10:07.140Z,1001.26
2018-05-08T18:20:07.220Z,1001.22
2018-05-08T18:30:07.171Z,1001.25
2018-05-08T18:40:07.250Z,1001.19
2018-05-08T18:50:07.190Z,1001.21
2018-05-08T19:00:07.161Z,1001.22
2018-05-08T19:10:07.132Z,1001.27
2018-05-08T19:20:07.182Z,1001.31
2018-05-08T19:30:07.138Z,1001.35
2018-05-08T19:40:07.209Z,1001.45
2018-05-08T19:50:07.123Z,1001.47
2018-05-08T20:00:07.238Z,1001.55
2018-05-08T20:10:07.188Z,1001.48
2018-05-08T20:20:07.164Z,1001.52
2018-05-08T20:30:07.145Z,1001.49
2018-05-08T20:40:07.221Z,1001.52
2018-05-08T20:50:07.177Z,1001.53
2018-05-08T21:00:07.139Z,1001.45
2018-05-08T21:10:07.231Z,1001.55
2018-05-08T21:20:07.168Z,1001.6
2018-05-08T21:30:07.269Z,1001.6
2018-05-08T21:40:07.206Z,1001.58
2018-05-08T21:50:07.736Z,1001.61
2018-05-08T22:00:07.233Z,1001.61
2018-05-08T22:10:07.315Z,1001.64
2018-05-08T22:20:07.142Z,1001.64
2018-05-08T22:30:07.138Z,1001.6
2018-05-08T22:40:07.153Z,1001.65
2018-05-08T22:50:07.228Z,1001.59
2018-05-08T23:00:08.226Z,1001.61
2018-05-08T23:10:07.268Z,1001.48
2018-05-08T23:20:07.230Z,1001.44
2018-05-08T23:30:07.190Z,1001.36
2018-05-08T23:40:07.241Z,1001.38
2018-05-08T23:50:07.189Z,1001.36
